Time;durP1;ratioP1;P1;durP2;ratioP2;P2;SDS_P1;SDS_P2;PMS_P1;PMS_P2;Temp;Humidity;BMP_temperature;BMP_pressure;BME280_temperature;BME280_humidity;BME280_pressure;Samples;Min_cycle;Max_cycle;Signal;HPM_P1;HPM_P2
2021/08/08 00:02:18;;;;;;;0.13;0.13;;;;;;;12.99;60.03;98180.41;6186538;23;20009;-70
2021/08/08 00:04:44;;;;;;;0.20;0.20;;;;;;;13.03;60.11;98184.31;6160198;23;20500;-67
2021/08/08 00:07:10;;;;;;;0.30;0.30;;;;;;;13.03;59.97;98183.47;6185715;23;20063;-66
2021/08/08 00:09:35;;;;;;;0.40;0.40;;;;;;;13.05;60.05;98182.09;6186485;23;20033;-67
2021/08/08 00:12:01;;;;;;;0.20;0.20;;;;;;;13.06;60.02;98182.94;6186188;23;20016;-66
2021/08/08 00:14:27;;;;;;;0.10;0.10;;;;;;;13.08;60.29;98189.03;6186592;23;20008;-66
2021/08/08 00:16:53;;;;;;;0.10;0.10;;;;;;;13.10;60.27;98181.31;6186791;23;20009;-67
2021/08/08 00:19:18;;;;;;;0.20;0.20;;;;;;;13.10;60.05;98186.81;6186240;23;20025;-66
2021/08/08 00:21:44;;;;;;;0.10;0.10;;;;;;;13.08;60.19;98181.56;6186286;23;20016;-69
2021/08/08 00:24:10;;;;;;;0.15;0.15;;;;;;;13.11;60.46;98191.25;6159877;23;20008;-68
2021/08/08 00:26:36;;;;;;;0.22;0.22;;;;;;;13.12;60.18;98192.91;6186635;23;20019;-68
2021/08/08 00:29:02;;;;;;;0.10;0.10;;;;;;;13.14;60.27;98196.22;6186487;23;20016;-67
2021/08/08 00:31:27;;;;;;;0.10;0.10;;;;;;;13.16;60.24;98205.03;6160436;23;20009;-66
2021/08/08 00:33:53;;;;;;;0.10;0.10;;;;;;;13.16;60.40;98199.53;6186646;23;20067;-68
2021/08/08 00:36:20;;;;;;;0.40;0.40;;;;;;;13.19;60.21;98203.69;6186116;23;20005;-69
2021/08/08 00:38:47;;;;;;;0.13;0.13;;;;;;;13.22;60.00;98211.41;6186368;23;20044;-68
2021/08/08 00:41:13;;;;;;;0.30;0.30;;;;;;;13.21;60.22;98201.50;6185973;23;20016;-68
2021/08/08 00:43:39;;;;;;;1.25;0.30;;;;;;;13.18;60.60;98202.88;6186299;23;20013;-69
2021/08/08 00:46:05;;;;;;;0.10;0.10;;;;;;;13.18;60.38;98208.38;6186583;23;20005;-68
2021/08/08 00:48:31;;;;;;;0.15;0.15;;;;;;;13.22;60.43;98214.16;6186257;23;20005;-68
2021/08/08 00:50:57;;;;;;;0.10;0.10;;;;;;;13.24;60.46;98204.53;6160136;23;20438;-66
2021/08/08 00:53:24;;;;;;;0.28;0.28;;;;;;;13.25;60.18;98208.97;6186217;23;20088;-66
2021/08/08 00:55:50;;;;;;;0.10;0.10;;;;;;;13.30;60.40;98213.69;6184626;23;20030;-68
2021/08/08 00:58:15;;;;;;;0.30;0.30;;;;;;;13.32;60.29;98217.00;6205186;23;20013;-66
2021/08/08 01:00:42;;;;;;;0.10;0.10;;;;;;;13.30;60.57;98219.19;6166730;23;20020;-67
2021/08/08 01:03:12;;;;;;;0.20;0.20;;;;;;;13.29;60.33;98214.75;6185066;23;20473;-67
2021/08/08 01:05:44;;;;;;;0.10;0.10;;;;;;;13.28;60.84;98219.47;6184236;23;20163;-68
2021/08/08 01:08:15;;;;;;;0.10;0.10;;;;;;;13.24;60.82;98212.00;6184597;23;20062;-66
2021/08/08 01:10:42;;;;;;;0.15;0.15;;;;;;;13.17;60.92;98209.47;6184527;23;20016;-69
2021/08/08 01:13:10;;;;;;;0.22;0.22;;;;;;;13.13;61.00;98205.56;6184509;23;20067;-68
2021/08/08 01:15:36;;;;;;;0.20;0.20;;;;;;;13.15;61.01;98211.66;6184721;23;20013;-68
2021/08/08 01:18:02;;;;;;;0.10;0.10;;;;;;;13.18;60.90;98213.88;6184353;23;20096;-68
2021/08/08 01:20:29;;;;;;;0.10;0.10;;;;;;;13.18;61.23;98213.06;6184547;23;20013;-68
2021/08/08 01:23:01;;;;;;;0.20;0.20;;;;;;;13.13;61.31;98211.94;6184477;23;20009;-69
2021/08/08 01:25:29;;;;;;;0.22;0.22;;;;;;;13.12;61.14;98226.81;6184645;23;20005;-69
2021/08/08 01:27:58;;;;;;;0.10;0.10;;;;;;;13.16;61.11;98232.59;6184554;23;20013;-67
2021/08/08 01:30:24;;;;;;;0.20;0.20;;;;;;;13.17;61.21;98234.28;6184428;23;20013;-67
2021/08/08 01:32:50;;;;;;;0.40;0.40;;;;;;;13.20;61.20;98227.41;6184599;23;20345;-68
2021/08/08 01:35:15;;;;;;;0.10;0.10;;;;;;;13.24;61.12;98229.34;6184013;23;20032;-67
2021/08/08 01:37:41;;;;;;;0.17;0.17;;;;;;;13.26;61.20;98229.91;6184395;23;20009;-67
2021/08/08 01:40:25;;;;;;;0.15;0.15;;;;;;;13.28;61.21;98229.63;6184622;23;20009;-66
2021/08/08 01:42:55;;;;;;;0.30;0.30;;;;;;;13.30;60.88;98228.28;6184492;23;20087;-67
2021/08/08 01:45:21;;;;;;;0.30;0.30;;;;;;;13.26;61.09;98234.59;6184597;23;20431;-67
2021/08/08 01:47:52;;;;;;;0.30;0.30;;;;;;;13.27;61.30;98230.75;6184507;23;20009;-68
2021/08/08 01:50:18;;;;;;;0.30;0.30;;;;;;;13.22;61.20;98225.19;6185258;23;20009;-68
2021/08/08 01:52:45;;;;;;;0.38;0.38;;;;;;;13.20;61.64;98238.44;6157666;23;20368;-69
2021/08/08 01:55:11;;;;;;;0.57;0.55;;;;;;;13.14;61.87;98240.31;6184475;23;20013;-68
2021/08/08 01:57:37;;;;;;;0.60;0.60;;;;;;;13.10;62.09;98244.69;6184731;23;20023;-69
2021/08/08 02:00:09;;;;;;;0.25;0.25;;;;;;;13.10;62.22;98236.44;6184529;23;20040;-67
2021/08/08 02:02:35;;;;;;;0.30;0.30;;;;;;;13.11;61.93;98241.66;6184786;23;20020;-67
2021/08/08 02:05:01;;;;;;;0.10;0.10;;;;;;;13.14;61.98;98240.31;6183945;23;20017;-67
2021/08/08 02:07:27;;;;;;;0.30;0.30;;;;;;;13.16;61.75;98238.13;6184520;23;20017;-67
2021/08/08 02:09:53;;;;;;;0.10;0.10;;;;;;;13.18;62.07;98238.69;6184701;23;20031;-66
2021/08/08 02:12:20;;;;;;;0.10;0.10;;;;;;;13.20;61.96;98239.25;6184657;23;20020;-66
2021/08/08 02:14:46;;;;;;;1.00;0.52;;;;;;;13.27;61.91;98239.84;6185711;23;20092;-67
2021/08/08 02:17:15;;;;;;;0.15;0.15;;;;;;;13.34;61.78;98239.66;6185402;23;20040;-68
2021/08/08 02:19:40;;;;;;;0.20;0.20;;;;;;;13.40;61.75;98240.53;6157827;23;20016;-67
2021/08/08 02:22:06;;;;;;;0.20;0.20;;;;;;;13.45;61.39;98240.53;6184309;23;20020;-67
2021/08/08 02:24:32;;;;;;;0.43;0.43;;;;;;;13.49;61.68;98236.16;6184298;23;20009;-66
2021/08/08 02:26:59;;;;;;;0.20;0.20;;;;;;;13.51;61.81;98233.94;6184215;23;20020;-68
2021/08/08 02:29:25;;;;;;;0.10;0.10;;;;;;;13.51;61.43;98236.69;6184336;23;20013;-66
2021/08/08 02:31:51;;;;;;;0.50;0.50;;;;;;;13.48;61.61;98228.97;6184366;23;20040;-66
2021/08/08 02:34:17;;;;;;;0.47;0.47;;;;;;;13.53;61.58;98226.25;6184058;23;20354;-66
2021/08/08 02:36:42;;;;;;;3.83;0.43;;;;;;;13.63;61.47;98226.28;6183253;23;20009;-67
2021/08/08 02:39:09;;;;;;;0.28;0.28;;;;;;;13.71;61.45;98221.34;6182751;23;20019;-67
2021/08/08 02:41:35;;;;;;;0.52;0.25;;;;;;;13.83;61.03;98231.03;6182676;23;20092;-67
2021/08/08 02:44:01;;;;;;;0.30;0.30;;;;;;;13.93;61.04;98224.75;6182648;23;20067;-67
2021/08/08 02:46:27;;;;;;;0.20;0.20;;;;;;;13.95;61.12;98228.03;6183603;23;20017;-66
2021/08/08 02:48:53;;;;;;;0.13;0.13;;;;;;;14.02;60.83;98231.38;6183627;23;20095;-68
2021/08/08 02:51:19;;;;;;;0.40;0.40;;;;;;;14.13;60.75;98236.94;6183715;23;20052;-68
2021/08/08 02:53:44;;;;;;;0.10;0.10;;;;;;;14.29;60.55;98232.28;6184455;23;20484;-70
2021/08/08 02:56:10;;;;;;;0.40;0.40;;;;;;;14.41;59.99;98241.13;6184060;23;20434;-69
2021/08/08 02:58:36;;;;;;;0.20;0.20;;;;;;;14.52;60.09;98237.28;6184862;23;20450;-70
2021/08/08 03:01:04;;;;;;;0.10;0.10;;;;;;;14.70;59.81;98235.94;6193444;23;20036;-70
2021/08/08 03:03:33;;;;;;;0.43;0.32;;;;;;;14.93;59.20;98232.88;6202912;23;20005;-68
2021/08/08 03:06:00;;;;;;;0.77;0.77;;;;;;;15.11;59.04;98231.50;6186630;23;20013;-68
2021/08/08 03:08:26;;;;;;;0.28;0.28;;;;;;;15.30;58.64;98235.31;6189704;23;20025;-65
2021/08/08 03:10:51;;;;;;;0.20;0.20;;;;;;;15.39;58.68;98239.16;6201171;23;20016;-73
2021/08/08 03:13:17;;;;;;;0.80;0.80;;;;;;;15.38;58.70;98243.03;6211638;23;20011;-70
2021/08/08 03:15:43;;;;;;;0.30;0.30;;;;;;;15.27;59.21;98238.66;6186632;23;20049;-69
2021/08/08 03:18:09;;;;;;;0.30;0.30;;;;;;;15.15;59.62;98246.41;6182639;23;20111;-70
2021/08/08 03:20:35;;;;;;;0.55;0.55;;;;;;;15.04;59.79;98246.41;6207779;23;20534;-71
2021/08/08 03:23:00;;;;;;;0.40;0.40;;;;;;;14.97;59.91;98251.44;6194090;23;20009;-72
2021/08/08 03:25:26;;;;;;;0.20;0.20;;;;;;;14.96;60.25;98255.28;6185681;23;20064;-71
2021/08/08 03:27:52;;;;;;;0.38;0.38;;;;;;;14.97;60.15;98259.72;6158951;23;20088;-75
2021/08/08 03:30:18;;;;;;;0.50;0.50;;;;;;;14.95;60.27;98258.34;6183965;23;20361;-74
2021/08/08 03:32:44;;;;;;;0.20;0.20;;;;;;;14.98;60.00;98258.59;6184611;23;20009;-76
2021/08/08 03:35:10;;;;;;;0.52;0.32;;;;;;;14.99;60.16;98249.19;6183983;23;20311;-74
2021/08/08 03:37:36;;;;;;;0.45;0.45;;;;;;;14.99;60.14;98254.72;6184599;23;20017;-77
2021/08/08 03:40:03;;;;;;;0.75;0.73;;;;;;;15.01;60.15;98257.22;6157858;23;20460;-74
2021/08/08 03:42:29;;;;;;;0.20;0.20;;;;;;;15.09;59.85;98264.13;6183911;23;20020;-74
2021/08/08 03:44:54;;;;;;;0.20;0.20;;;;;;;15.17;59.69;98264.38;6183660;23;20354;-73
2021/08/08 03:47:20;;;;;;;0.45;0.40;;;;;;;15.19;59.87;98269.63;6183570;23;20067;-72
2021/08/08 03:49:46;;;;;;;0.25;0.25;;;;;;;15.14;60.04;98270.47;6184382;23;20008;-74
2021/08/08 03:52:12;;;;;;;0.10;0.10;;;;;;;15.07;60.29;98265.25;6183840;23;20833;-73
2021/08/08 03:54:38;;;;;;;0.70;0.35;;;;;;;15.01;60.49;98271.84;6156889;23;20009;-72
2021/08/08 03:57:04;;;;;;;0.10;0.10;;;;;;;14.96;60.51;98274.63;6183544;23;20016;-68
2021/08/08 03:59:30;;;;;;;0.10;0.10;;;;;;;14.95;60.60;98272.97;6183784;23;20013;-72
2021/08/08 04:01:55;;;;;;;0.25;0.25;;;;;;;14.98;60.56;98261.34;6183158;23;20063;-72
2021/08/08 04:04:21;;;;;;;0.45;0.38;;;;;;;15.00;60.48;98272.13;6182239;23;20469;-72
2021/08/08 04:06:47;;;;;;;1.55;0.30;;;;;;;15.02;60.64;98267.19;6181063;23;20017;-74
2021/08/08 04:09:12;;;;;;;0.65;0.52;;;;;;;15.03;60.39;98266.06;6181063;23;20020;-72
2021/08/08 04:11:38;;;;;;;0.10;0.10;;;;;;;15.07;60.46;98265.25;6179025;23;20373;-73
2021/08/08 04:14:04;;;;;;;0.10;0.10;;;;;;;15.17;60.34;98263.56;6181207;23;20147;-73
2021/08/08 04:16:29;;;;;;;0.10;0.10;;;;;;;15.26;60.03;98261.06;6181003;23;20353;-73
2021/08/08 04:18:55;;;;;;;0.25;0.25;;;;;;;15.30;60.20;98268.53;6182353;23;20017;-71
2021/08/08 04:21:21;;;;;;;0.40;0.40;;;;;;;15.36;59.91;98269.34;6182405;23;20012;-72
2021/08/08 04:23:47;;;;;;;1.75;0.52;;;;;;;15.35;59.94;98279.56;6182931;23;20385;-71
2021/08/08 04:26:12;;;;;;;0.38;0.38;;;;;;;15.34;60.15;98274.31;6182777;23;20017;-72
2021/08/08 04:28:41;;;;;;;0.10;0.10;;;;;;;15.37;60.08;98280.13;6183048;23;20037;-72
2021/08/08 04:31:10;;;;;;;0.38;0.38;;;;;;;15.36;60.26;98275.69;6183591;23;20013;-74
2021/08/08 04:33:36;;;;;;;0.20;0.20;;;;;;;15.36;60.15;98272.94;6185295;23;20012;-79
2021/08/08 04:36:03;;;;;;;0.50;0.50;;;;;;;15.40;60.10;98278.75;6184502;23;20008;-73
2021/08/08 04:38:29;;;;;;;0.35;0.35;;;;;;;15.40;60.20;98276.81;6184618;23;20485;-73
2021/08/08 04:40:55;;;;;;;0.43;0.43;;;;;;;15.41;60.20;98294.22;6184619;23;20496;-69
2021/08/08 04:43:21;;;;;;;0.45;0.45;;;;;;;15.40;60.28;98285.09;6184883;23;20008;-67
2021/08/08 04:45:47;;;;;;;0.52;0.45;;;;;;;15.51;59.90;98296.16;6185461;23;20013;-68
2021/08/08 04:48:13;;;;;;;0.32;0.32;;;;;;;15.57;59.98;98292.25;6158249;23;20020;-72
2021/08/08 04:50:38;;;;;;;0.52;0.52;;;;;;;15.63;60.13;98287.53;6185008;23;20032;-70
2021/08/08 04:53:04;;;;;;;0.47;0.47;;;;;;;15.66;60.13;98290.56;6185098;23;20008;-70
2021/08/08 04:55:30;;;;;;;0.55;0.55;;;;;;;15.73;60.02;98276.44;6185161;23;20013;-69
2021/08/08 04:57:56;;;;;;;2.22;0.85;;;;;;;15.83;59.94;98287.50;6184606;23;20082;-69
2021/08/08 05:00:21;;;;;;;1.98;0.68;;;;;;;15.91;59.60;98277.78;6184374;23;20008;-68
2021/08/08 05:02:48;;;;;;;0.63;0.63;;;;;;;15.99;59.58;98274.44;6186313;23;20471;-68
2021/08/08 05:05:15;;;;;;;0.20;0.20;;;;;;;16.03;59.60;98278.31;6199753;23;20032;-69
2021/08/08 05:07:41;;;;;;;0.40;0.40;;;;;;;16.09;59.61;98279.09;6192819;23;20088;-69
2021/08/08 05:10:09;;;;;;;0.77;0.75;;;;;;;16.16;59.39;98276.00;6185161;23;20021;-69
2021/08/08 05:12:35;;;;;;;0.40;0.40;;;;;;;16.16;59.60;98278.78;6184078;23;20167;-70
2021/08/08 05:15:01;;;;;;;0.43;0.43;;;;;;;16.26;59.42;98278.72;6184746;23;20690;-72
2021/08/08 05:17:27;;;;;;;0.88;0.82;;;;;;;16.36;59.16;98283.41;6184420;23;20008;-74
2021/08/08 05:19:52;;;;;;;0.30;0.30;;;;;;;16.40;59.11;98290.84;6184776;23;20012;-75
2021/08/08 05:22:18;;;;;;;3.33;0.63;;;;;;;16.45;59.22;98295.53;6158109;23;20618;-68
2021/08/08 05:24:44;;;;;;;2.67;0.80;;;;;;;16.55;58.92;98284.38;6158109;23;20450;-69
2021/08/08 05:27:09;;;;;;;0.35;0.35;;;;;;;16.70;58.89;98275.13;6184478;23;20555;-69
2021/08/08 05:29:35;;;;;;;2.25;1.33;;;;;;;16.73;58.82;98282.88;6158108;23;20067;-70
2021/08/08 05:32:01;;;;;;;0.63;0.63;;;;;;;16.81;58.65;98282.25;6184340;23;20036;-69
2021/08/08 05:34:27;;;;;;;0.38;0.38;;;;;;;16.81;58.84;98296.13;6184046;23;20013;-66
2021/08/08 05:36:52;;;;;;;1.08;0.98;;;;;;;16.84;58.95;98282.78;6155980;23;20092;-71
2021/08/08 05:39:18;;;;;;;1.45;1.15;;;;;;;16.95;58.64;98287.19;6182553;23;20111;-73
2021/08/08 05:41:44;;;;;;;3.13;1.08;;;;;;;16.93;58.75;98298.56;6182408;23;20091;-68
2021/08/08 05:44:09;;;;;;;4.00;1.17;;;;;;;16.94;59.08;98300.19;6182718;23;20019;-69
2021/08/08 05:46:36;;;;;;;0.40;0.40;;;;;;;17.02;58.82;98306.25;6156461;23;20465;-69
2021/08/08 05:49:01;;;;;;;4.43;1.38;;;;;;;17.07;58.62;98301.50;6182813;23;20013;-69
2021/08/08 05:51:27;;;;;;;0.90;0.90;;;;;;;17.20;58.56;98301.97;6182713;23;20019;-75
2021/08/08 05:53:53;;;;;;;2.55;2.35;;;;;;;17.26;58.45;98306.34;6182860;23;20009;-72
2021/08/08 05:56:19;;;;;;;3.50;2.00;;;;;;;17.30;58.63;98296.31;6182742;23;20012;-71
2021/08/08 05:58:44;;;;;;;1.10;0.75;;;;;;;17.30;58.59;98310.19;6182986;23;20342;-76
2021/08/08 06:01:10;;;;;;;2.53;1.23;;;;;;;17.23;58.87;98304.16;6183175;23;20013;-73
2021/08/08 06:03:36;;;;;;;1.88;1.23;;;;;;;17.04;59.22;98304.84;6182894;23;20009;-73
2021/08/08 06:06:01;;;;;;;1.15;0.90;;;;;;;16.81;59.94;98304.44;6181926;23;20016;-69
2021/08/08 06:08:28;;;;;;;0.50;0.50;;;;;;;16.58;60.44;98314.28;6155844;23;20361;-70
2021/08/08 06:10:54;;;;;;;0.60;0.47;;;;;;;16.39;61.02;98311.34;6181783;23;20068;-73
2021/08/08 06:13:20;;;;;;;0.47;0.47;;;;;;;16.19;61.55;98306.72;6156386;23;20005;-67
2021/08/08 06:15:46;;;;;;;2.42;1.23;;;;;;;16.08;61.56;98300.41;6182343;23;20009;-72
2021/08/08 06:18:11;;;;;;;9.90;1.70;;;;;;;16.06;61.75;98310.97;6182320;23;20524;-71
2021/08/08 06:20:37;;;;;;;1.05;0.98;;;;;;;16.06;61.76;98313.72;6155842;23;20021;-70
2021/08/08 06:23:03;;;;;;;0.73;0.73;;;;;;;16.14;61.47;98309.53;6182535;23;20350;-71
2021/08/08 06:25:29;;;;;;;1.55;1.45;;;;;;;16.18;61.33;98316.19;6182250;23;20010;-70
2021/08/08 06:27:54;;;;;;;2.42;1.23;;;;;;;16.20;61.27;98318.66;6182511;23;20452;-71
2021/08/08 06:30:20;;;;;;;1.08;0.77;;;;;;;16.20;61.27;98329.75;6182307;23;20013;-70
2021/08/08 06:32:46;;;;;;;3.92;0.98;;;;;;;16.27;61.09;98330.25;6182086;23;20013;-72
2021/08/08 06:35:11;;;;;;;7.40;1.40;;;;;;;16.45;60.71;98331.56;6179812;23;20461;-69
2021/08/08 06:37:43;;;;;;;1.33;1.20;;;;;;;16.59;60.53;98337.28;6180237;23;20009;-68
2021/08/08 06:40:09;;;;;;;2.42;1.60;;;;;;;16.61;60.47;98335.06;6182174;23;20096;-69
2021/08/08 06:42:36;;;;;;;1.92;0.85;;;;;;;16.65;60.50;98336.13;6182472;23;20046;-76
2021/08/08 06:45:03;;;;;;;0.88;0.68;;;;;;;16.67;60.53;98338.66;6182660;23;20040;-70
2021/08/08 06:47:29;;;;;;;3.65;1.05;;;;;;;16.68;60.65;98352.22;6181837;23;20075;-69
2021/08/08 06:49:55;;;;;;;2.75;1.77;;;;;;;16.75;60.61;98344.38;6182784;23;20017;-68
2021/08/08 06:52:20;;;;;;;2.45;1.80;;;;;;;16.82;60.51;98347.66;6182407;23;20020;-66
2021/08/08 06:54:46;;;;;;;6.10;1.15;;;;;;;16.89;60.52;98349.34;6182452;23;20020;-69
2021/08/08 06:57:21;;;;;;;1.20;0.98;;;;;;;16.93;60.47;98353.19;6181927;23;20979;-65
2021/08/08 06:59:46;;;;;;;9.48;1.70;;;;;;;16.96;60.43;98349.81;6181456;23;20471;-68
2021/08/08 07:02:12;;;;;;;1.80;1.70;;;;;;;16.95;60.59;98349.00;6181044;23;20009;-70
2021/08/08 07:04:38;;;;;;;1.75;0.47;;;;;;;16.98;60.75;98355.94;6192531;23;20005;-75
2021/08/08 07:07:03;;;;;;;1.30;1.00;;;;;;;16.94;60.97;98354.84;6199952;23;20009;-71
2021/08/08 07:09:29;;;;;;;1.27;1.23;;;;;;;16.85;61.08;98351.00;6184536;23;20025;-72
2021/08/08 07:11:55;;;;;;;1.92;1.80;;;;;;;16.74;61.52;98359.38;6181523;23;20013;-74
2021/08/08 07:14:20;;;;;;;2.95;1.75;;;;;;;16.67;61.76;98360.81;6181695;23;20442;-70
2021/08/08 07:16:46;;;;;;;2.15;1.30;;;;;;;16.59;61.99;98368.63;6183145;23;20370;-68
2021/08/08 07:19:13;;;;;;;1.38;1.27;;;;;;;16.51;62.33;98371.97;6182661;23;20434;-70
2021/08/08 07:21:39;;;;;;;2.55;1.45;;;;;;;16.46;62.55;98381.16;6183213;23;20005;-72
2021/08/08 07:24:04;;;;;;;3.30;1.23;;;;;;;16.42;62.58;98371.75;6182444;23;20009;-74
2021/08/08 07:26:30;;;;;;;2.78;2.03;;;;;;;16.42;62.64;98385.59;6182138;23;20342;-69
2021/08/08 07:28:56;;;;;;;1.58;1.48;;;;;;;16.46;62.37;98377.56;6181252;23;20024;-68
2021/08/08 07:32:02;;;;;;;1.48;0.98;;;;;;;16.53;62.57;98378.03;6178847;23;20422;-68
2021/08/08 07:34:27;;;;;;;7.55;1.63;;;;;;;16.57;62.44;98381.91;6181919;23;20013;-69
2021/08/08 07:40:16;;;;;;;3.33;1.35;;;;;;;16.74;62.15;98381.56;6166373;23;20040;-75
2021/08/08 07:42:47;;;;;;;2.90;1.88;;;;;;;16.83;62.10;98373.47;6158114;23;20434;-69
2021/08/08 07:45:13;;;;;;;0.60;0.60;;;;;;;16.94;61.93;98388.13;6184960;23;20009;-70
2021/08/08 07:47:39;;;;;;;2.05;1.85;;;;;;;17.02;61.77;98384.75;6184785;23;20013;-68
2021/08/08 07:50:05;;;;;;;1.80;1.15;;;;;;;17.10;61.91;98394.41;6184516;23;20045;-64
2021/08/08 07:52:30;;;;;;;7.10;1.42;;;;;;;17.20;61.88;98382.41;6181698;23;20005;-67
2021/08/08 07:54:56;;;;;;;2.42;1.67;;;;;;;17.27;61.84;98391.22;6182899;23;20070;-65
2021/08/08 07:57:22;;;;;;;4.90;1.75;;;;;;;17.43;61.45;98391.91;6184463;23;20461;-66
2021/08/08 07:59:48;;;;;;;2.20;1.23;;;;;;;17.60;61.27;98386.78;6184063;23;20515;-65
2021/08/08 08:02:13;;;;;;;4.57;1.17;;;;;;;17.69;61.03;98392.53;6184149;23;20040;-67
2021/08/08 08:04:39;;;;;;;1.98;1.48;;;;;;;17.71;61.39;98395.84;6184593;23;20001;-67
2021/08/08 08:07:05;;;;;;;1.08;1.05;;;;;;;17.72;61.29;98397.50;6185724;23;20017;-70
2021/08/08 08:09:30;;;;;;;3.20;2.47;;;;;;;17.76;61.45;98400.53;6160092;23;20095;-69
2021/08/08 08:11:59;;;;;;;2.90;2.58;;;;;;;17.75;61.57;98396.91;6186148;23;20032;-67
2021/08/08 08:14:25;;;;;;;3.28;1.92;;;;;;;17.79;61.50;98400.75;6185631;23;20041;-65
2021/08/08 08:16:51;;;;;;;1.85;1.38;;;;;;;17.85;61.52;98399.59;6185488;23;20013;-68
2021/08/08 08:19:17;;;;;;;3.33;1.08;;;;;;;17.90;61.29;98409.03;6182836;23;20084;-66
2021/08/08 08:21:44;;;;;;;2.95;1.88;;;;;;;18.02;61.23;98406.66;6182290;23;20384;-69
2021/08/08 08:24:10;;;;;;;2.78;1.42;;;;;;;18.18;60.78;98404.56;6183917;23;20425;-70
2021/08/08 08:26:36;;;;;;;1.75;1.65;;;;;;;18.34;60.63;98405.22;6184401;23;20009;-70
2021/08/08 08:29:02;;;;;;;1.92;1.83;;;;;;;18.54;60.34;98396.63;6184636;23;20397;-69
2021/08/08 08:32:07;;;;;;;1.90;1.80;;;;;;;18.69;60.06;98392.81;6185573;23;20376;-67
2021/08/08 08:34:34;;;;;;;2.55;1.48;;;;;;;18.74;59.97;98383.56;6158282;23;20417;-73
2021/08/08 08:36:59;;;;;;;5.28;1.73;;;;;;;18.79;60.04;98386.28;6157885;23;20104;-70
2021/08/08 08:39:25;;;;;;;3.80;1.80;;;;;;;18.81;60.08;98381.25;6184726;23;20044;-72
2021/08/08 08:41:54;;;;;;;1.65;1.55;;;;;;;18.88;60.05;98384.50;6184734;23;20013;-71
2021/08/08 08:44:22;;;;;;;1.95;1.77;;;;;;;19.00;60.14;98377.69;6184295;23;20009;-73
2021/08/08 08:46:48;;;;;;;2.50;2.03;;;;;;;19.09;59.64;98378.66;6184823;23;20070;-74
2021/08/08 08:49:20;;;;;;;7.32;2.95;;;;;;;19.21;59.69;98375.41;6184857;23;20017;-72
2021/08/08 08:51:53;;;;;;;2.03;1.92;;;;;;;19.30;59.48;98373.59;6186199;23;20009;-71
2021/08/08 08:54:34;;;;;;;3.85;3.55;;;;;;;19.36;59.68;98372.38;6183793;23;20009;-69
2021/08/08 08:57:00;;;;;;;1.50;1.42;;;;;;;;;;6158524;23;20009;-71
2021/08/08 08:59:27;;;;;;;2.85;2.50;;;;;;;19.76;58.96;98383.13;6184463;23;20097;-71
2021/08/08 09:01:53;;;;;;;3.63;1.27;;;;;;;20.21;57.90;98388.97;6169052;23;19999;-74
2021/08/08 09:04:19;;;;;;;1.67;1.38;;;;;;;20.69;57.13;98384.97;6201767;23;20009;-70
2021/08/08 09:06:45;;;;;;;4.72;2.38;;;;;;;21.08;56.19;98382.72;6185938;23;20055;-72
2021/08/08 09:09:11;;;;;;;5.40;2.97;;;;;;;21.26;56.01;98387.31;6184834;23;20100;-70
2021/08/08 09:11:41;;;;;;;5.50;2.55;;;;;;;21.32;56.12;98388.03;6183607;23;20045;-70
2021/08/08 09:14:12;;;;;;;1.65;1.55;;;;;;;21.31;56.66;98384.38;6183848;23;20005;-67
2021/08/08 09:17:18;;;;;;;6.93;4.88;;;;;;;21.24;57.08;98378.41;6158382;23;20422;-67
2021/08/08 09:19:44;;;;;;;10.18;2.70;;;;;;;21.27;56.76;98380.56;6184193;23;20067;-67
2021/08/08 09:22:21;;;;;;;3.35;2.40;;;;;;;21.38;56.77;98380.31;6184177;23;20016;-67
2021/08/08 09:24:46;;;;;;;3.25;2.20;;;;;;;21.50;56.76;98381.44;6183963;23;20622;-68
2021/08/08 09:30:39;;;;;;;5.40;2.47;;;;;;;22.00;55.79;98374.84;6172362;23;20023;-66
2021/08/08 09:33:08;;;;;;;9.32;3.28;;;;;;;21.95;56.10;98377.78;6184176;23;20013;-67
2021/08/08 09:35:35;;;;;;;2.45;2.15;;;;;;;21.82;56.31;98371.13;6183605;23;20012;-66
2021/08/08 09:38:04;;;;;;;5.03;2.70;;;;;;;21.72;56.85;98376.19;6181111;23;20013;-65
2021/08/08 09:40:31;;;;;;;6.15;3.13;;;;;;;21.68;57.01;98385.16;6185161;23;20009;-68
2021/08/08 09:42:58;;;;;;;4.88;4.40;;;;;;;21.65;57.01;98387.78;6184730;23;20009;-68
2021/08/08 09:45:44;;;;;;;4.35;2.75;;;;;;;21.51;57.16;98390.66;6184869;23;20015;-68
2021/08/08 09:48:11;;;;;;;3.67;3.15;;;;;;;21.39;57.68;98385.59;6185002;23;20445;-70
2021/08/08 09:50:39;;;;;;;9.05;4.10;;;;;;;21.33;57.97;98400.81;6185584;23;20009;-70
2021/08/08 09:53:07;;;;;;;7.78;3.50;;;;;;;21.23;57.81;98393.53;6184882;23;20010;-68
2021/08/08 09:55:38;;;;;;;3.75;2.90;;;;;;;21.22;57.91;98402.22;6185197;23;20048;-69
2021/08/08 09:58:10;;;;;;;13.43;3.58;;;;;;;21.17;58.11;98405.94;6185557;23;20005;-70
2021/08/08 10:00:38;;;;;;;16.25;3.78;;;;;;;21.12;58.13;98398.50;6184975;23;20013;-72
2021/08/08 10:03:06;;;;;;;5.43;2.42;;;;;;;21.06;58.04;98405.34;6158830;23;20015;-71
2021/08/08 10:05:38;;;;;;;9.57;4.82;;;;;;;21.04;58.20;98402.06;6184626;23;20016;-73
2021/08/08 10:08:14;;;;;;;9.55;3.20;;;;;;;21.05;58.34;98402.88;6185011;23;20097;-68
2021/08/08 10:10:42;;;;;;;4.35;3.53;;;;;;;21.12;58.20;98403.28;6185027;23;20029;-68
2021/08/08 10:13:08;;;;;;;6.80;3.75;;;;;;;21.17;57.73;98412.38;6158680;23;20369;-74
2021/08/08 10:15:36;;;;;;;2.58;2.45;;;;;;;21.26;57.67;98412.44;6184635;23;20009;-67
2021/08/08 10:18:03;;;;;;;5.28;3.63;;;;;;;21.35;57.59;98404.97;6185134;23;20112;-68
2021/08/08 10:20:32;;;;;;;7.80;4.05;;;;;;;21.51;56.92;98415.81;6184896;23;20016;-73
2021/08/08 10:23:00;;;;;;;10.82;4.18;;;;;;;21.59;56.66;98423.41;6185157;23;20393;-69
2021/08/08 10:25:27;;;;;;;6.18;4.45;;;;;;;21.59;57.19;98423.41;6185144;23;20009;-72
2021/08/08 10:27:53;;;;;;;8.55;4.18;;;;;;;21.53;57.44;98421.88;6185013;23;20019;-67
2021/08/08 10:30:18;;;;;;;8.00;2.75;;;;;;;21.51;57.02;98427.78;6184301;23;20012;-68
2021/08/08 10:32:45;;;;;;;8.02;4.45;;;;;;;21.53;57.17;98425.50;6185202;23;20053;-67
2021/08/08 10:35:12;;;;;;;5.50;2.17;;;;;;;21.59;57.09;98422.59;6184319;23;20068;-68
2021/08/08 10:37:39;;;;;;;5.05;3.53;;;;;;;21.67;56.94;98433.84;6182495;23;20013;-69
2021/08/08 10:40:06;;;;;;;5.35;3.65;;;;;;;21.69;57.01;98433.50;6184905;23;20013;-69
2021/08/08 10:42:43;;;;;;;16.17;5.30;;;;;;;21.62;57.24;98428.34;6184926;23;20066;-70
2021/08/08 10:45:24;;;;;;;11.43;6.32;;;;;;;21.53;57.40;98439.47;6184300;23;20091;-70
2021/08/08 10:47:54;;;;;;;10.65;4.03;;;;;;;21.53;57.51;98447.03;6184859;23;20505;-70
2021/08/08 10:50:20;;;;;;;9.63;4.60;;;;;;;21.59;57.27;98442.16;6184529;23;20088;-70
2021/08/08 10:52:45;;;;;;;5.90;3.97;;;;;;;21.73;56.88;98450.44;6184722;23;20044;-71
2021/08/08 10:55:27;;;;;;;9.95;4.40;;;;;;;21.92;56.96;98439.88;6185407;23;20437;-67
2021/08/08 10:57:53;;;;;;;6.25;4.45;;;;;;;22.12;56.30;98452.53;6183531;23;20056;-69
2021/08/08 11:00:20;;;;;;;7.53;3.83;;;;;;;22.29;56.13;98445.38;6184648;23;20017;-70
2021/08/08 11:02:47;;;;;;;7.20;3.88;;;;;;;22.56;55.30;98456.38;6189198;23;20016;-67
2021/08/08 11:05:18;;;;;;;6.68;4.57;;;;;;;22.66;55.19;98455.28;6195601;23;20437;-73
2021/08/08 11:07:46;;;;;;;6.63;3.50;;;;;;;22.62;55.44;98462.66;6185787;23;20017;-71
2021/08/08 11:10:12;;;;;;;7.13;2.88;;;;;;;22.57;55.69;98463.63;6185412;23;20087;-69
2021/08/08 11:12:40;;;;;;;9.88;4.47;;;;;;;22.59;55.64;98468.09;6184670;23;20013;-72
2021/08/08 11:15:08;;;;;;;15.20;2.95;;;;;;;22.53;55.96;98464.59;6184695;23;20017;-73
2021/08/08 11:17:34;;;;;;;7.40;3.53;;;;;;;22.43;56.37;98479.69;6184244;23;20067;-69
2021/08/08 11:20:00;;;;;;;9.32;5.13;;;;;;;22.34;56.76;98465.66;6184549;23;20013;-70
2021/08/08 11:22:28;;;;;;;8.50;4.95;;;;;;;22.23;56.57;98465.09;6184710;23;20071;-70
2021/08/08 11:24:59;;;;;;;6.38;4.72;;;;;;;22.05;56.93;98464.19;6184582;23;20462;-70
2021/08/08 11:27:34;;;;;;;5.40;4.10;;;;;;;21.85;57.58;98475.88;6184270;23;20009;-68
2021/08/08 11:30:01;;;;;;;7.68;4.50;;;;;;;21.60;57.98;98464.19;6183580;23;20087;-70
2021/08/08 11:32:34;;;;;;;6.38;4.03;;;;;;;21.40;58.67;98476.63;6184319;23;20013;-68
2021/08/08 11:35:09;;;;;;;7.57;2.80;;;;;;;21.25;58.91;98490.94;6183908;23;20088;-70
2021/08/08 11:37:43;;;;;;;5.00;3.05;;;;;;;21.17;58.89;98481.31;6184410;23;20009;-74
2021/08/08 11:40:19;;;;;;;;;;;;;;;21.06;59.04;98488.28;6185030;23;20017;-69
2021/08/08 11:42:45;;;;;;;3.53;3.17;;;;;;;20.97;58.91;98489.00;6158222;23;19919;-70